sensor_id;sensor_type;location;lat;lon;timestamp;pressure;altitude;pressure_sealevel;temperature;humidity
75745;BME280;64359;51.366;-0.222;2023-02-27T00:00:22;102743.36;;;21.76;43.87
75745;BME280;64359;51.366;-0.222;2023-02-27T00:01:27;102745.91;;;21.75;43.89
75745;BME280;64359;51.366;-0.222;2023-02-27T00:02:33;102741.20;;;21.75;43.92
75745;BME280;64359;51.366;-0.222;2023-02-27T00:03:37;102743.54;;;21.76;43.93
75745;BME280;64359;51.366;-0.222;2023-02-27T00:04:41;102743.02;;;21.75;43.83
75745;BME280;64359;51.366;-0.222;2023-02-27T00:05:46;102746.05;;;21.76;43.74
75745;BME280;64359;51.366;-0.222;2023-02-27T00:06:50;102745.34;;;21.76;43.87
75745;BME280;64359;51.366;-0.222;2023-02-27T00:07:54;102747.48;;;21.76;43.90
75745;BME280;64359;51.366;-0.222;2023-02-27T00:08:59;102746.56;;;21.76;43.64
75745;BME280;64359;51.366;-0.222;2023-02-27T00:10:04;102745.11;;;21.76;43.75
75745;BME280;64359;51.366;-0.222;2023-02-27T00:11:09;102748.59;;;21.76;43.85
75745;BME280;64359;51.366;-0.222;2023-02-27T00:12:13;102748.73;;;21.76;43.78
75745;BME280;64359;51.366;-0.222;2023-02-27T00:13:18;102746.58;;;21.76;43.71
75745;BME280;64359;51.366;-0.222;2023-02-27T00:14:22;102744.08;;;21.76;43.61
75745;BME280;64359;51.366;-0.222;2023-02-27T00:15:26;102744.05;;;21.76;43.64
75745;BME280;64359;51.366;-0.222;2023-02-27T00:16:32;102745.48;;;21.76;43.74
75745;BME280;64359;51.366;-0.222;2023-02-27T00:17:37;102741.89;;;21.76;43.85
75745;BME280;64359;51.366;-0.222;2023-02-27T00:18:42;102742.80;;;21.76;43.86
75745;BME280;64359;51.366;-0.222;2023-02-27T00:19:46;102740.14;;;21.75;43.89
75745;BME280;64359;51.366;-0.222;2023-02-27T00:20:50;102745.83;;;21.76;44.02
75745;BME280;64359;51.366;-0.222;2023-02-27T00:21:55;102745.37;;;21.75;43.72
75745;BME280;64359;51.366;-0.222;2023-02-27T00:22:59;102745.86;;;21.76;43.83
75745;BME280;64359;51.366;-0.222;2023-02-27T00:24:04;102744.40;;;21.76;43.73
75745;BME280;64359;51.366;-0.222;2023-02-27T00:25:10;102745.48;;;21.76;43.75
75745;BME280;64359;51.366;-0.222;2023-02-27T00:26:14;102745.91;;;21.75;43.82
75745;BME280;64359;51.366;-0.222;2023-02-27T00:27:19;102746.25;;;21.75;43.73
75745;BME280;64359;51.366;-0.222;2023-02-27T00:28:23;102748.94;;;21.76;43.44
75745;BME280;64359;51.366;-0.222;2023-02-27T00:29:32;102748.42;;;21.75;43.57
75745;BME280;64359;51.366;-0.222;2023-02-27T00:30:38;102752.79;;;21.75;43.76
75745;BME280;64359;51.366;-0.222;2023-02-27T00:31:42;102750.25;;;21.75;43.76
75745;BME280;64359;51.366;-0.222;2023-02-27T00:32:46;102753.68;;;21.75;43.83
75745;BME280;64359;51.366;-0.222;2023-02-27T00:33:51;102752.08;;;21.75;43.81
75745;BME280;64359;51.366;-0.222;2023-02-27T00:34:55;102752.25;;;21.75;43.64
75745;BME280;64359;51.366;-0.222;2023-02-27T00:36:00;102751.02;;;21.75;43.38
75745;BME280;64359;51.366;-0.222;2023-02-27T00:37:05;102749.19;;;21.75;43.42
75745;BME280;64359;51.366;-0.222;2023-02-27T00:38:10;102750.65;;;21.75;43.40
75745;BME280;64359;51.366;-0.222;2023-02-27T00:39:14;102749.25;;;21.74;43.34
75745;BME280;64359;51.366;-0.222;2023-02-27T00:40:19;102751.56;;;21.75;43.33
75745;BME280;64359;51.366;-0.222;2023-02-27T00:41:23;102751.05;;;21.75;43.41
75745;BME280;64359;51.366;-0.222;2023-02-27T00:42:28;102747.85;;;21.74;43.22
75745;BME280;64359;51.366;-0.222;2023-02-27T00:43:33;102748.36;;;21.74;43.28
75745;BME280;64359;51.366;-0.222;2023-02-27T00:44:37;102748.77;;;21.74;43.44
75745;BME280;64359;51.366;-0.222;2023-02-27T00:45:42;102750.23;;;21.74;43.51
75745;BME280;64359;51.366;-0.222;2023-02-27T00:46:47;102750.96;;;21.73;43.38
75745;BME280;64359;51.366;-0.222;2023-02-27T00:47:51;102749.17;;;21.73;43.28
75745;BME280;64359;51.366;-0.222;2023-02-27T00:48:56;102749.17;;;21.73;43.28
75745;BME280;64359;51.366;-0.222;2023-02-27T00:50:00;102748.95;;;21.74;43.28
75745;BME280;64359;51.366;-0.222;2023-02-27T00:51:05;102749.34;;;21.74;43.20
75745;BME280;64359;51.366;-0.222;2023-02-27T00:52:10;102751.00;;;21.73;43.33
75745;BME280;64359;51.366;-0.222;2023-02-27T00:53:14;102753.17;;;21.73;43.44
75745;BME280;64359;51.366;-0.222;2023-02-27T00:54:19;102753.23;;;21.73;43.42
75745;BME280;64359;51.366;-0.222;2023-02-27T00:55:23;102750.86;;;21.73;43.33
75745;BME280;64359;51.366;-0.222;2023-02-27T00:56:28;102749.05;;;21.73;43.52
75745;BME280;64359;51.366;-0.222;2023-02-27T00:57:32;102753.38;;;21.73;43.48
75745;BME280;64359;51.366;-0.222;2023-02-27T00:58:36;102750.89;;;21.72;43.41
75745;BME280;64359;51.366;-0.222;2023-02-27T00:59:41;102751.40;;;21.73;43.48
75745;BME280;64359;51.366;-0.222;2023-02-27T01:00:45;102751.57;;;21.73;43.37
75745;BME280;64359;51.366;-0.222;2023-02-27T01:01:50;102752.09;;;21.73;43.67
75745;BME280;64359;51.366;-0.222;2023-02-27T01:02:54;102754.40;;;21.74;43.69
75745;BME280;64359;51.366;-0.222;2023-02-27T01:03:58;102748.45;;;21.73;43.37
75745;BME280;64359;51.366;-0.222;2023-02-27T01:05:03;102747.92;;;21.73;43.69
75745;BME280;64359;51.366;-0.222;2023-02-27T01:06:07;102744.32;;;21.73;43.54
75745;BME280;64359;51.366;-0.222;2023-02-27T01:07:12;102746.71;;;21.73;43.39
75745;BME280;64359;51.366;-0.222;2023-02-27T01:08:16;102746.69;;;21.73;43.54
75745;BME280;64359;51.366;-0.222;2023-02-27T01:09:22;102749.06;;;21.73;43.32
75745;BME280;64359;51.366;-0.222;2023-02-27T01:10:27;102747.27;;;21.72;43.18
75745;BME280;64359;51.366;-0.222;2023-02-27T01:11:32;102746.71;;;21.73;43.22
75745;BME280;64359;51.366;-0.222;2023-02-27T01:12:36;102748.52;;;21.73;43.37
75745;BME280;64359;51.366;-0.222;2023-02-27T01:13:40;102751.43;;;21.72;43.36
75745;BME280;64359;51.366;-0.222;2023-02-27T01:14:46;102754.45;;;21.73;43.60
75745;BME280;64359;51.366;-0.222;2023-02-27T01:15:50;102754.31;;;21.73;43.58
75745;BME280;64359;51.366;-0.222;2023-02-27T01:16:55;102754.52;;;21.72;43.60
75745;BME280;64359;51.366;-0.222;2023-02-27T01:18:00;102752.37;;;21.72;43.50
75745;BME280;64359;51.366;-0.222;2023-02-27T01:19:04;102750.75;;;21.72;43.37
75745;BME280;64359;51.366;-0.222;2023-02-27T01:20:11;102753.83;;;21.72;43.23
75745;BME280;64359;51.366;-0.222;2023-02-27T01:21:16;102756.91;;;21.72;43.27
75745;BME280;64359;51.366;-0.222;2023-02-27T01:22:20;102753.70;;;21.72;43.25
75745;BME280;64359;51.366;-0.222;2023-02-27T01:23:24;102754.40;;;21.72;43.23
75745;BME280;64359;51.366;-0.222;2023-02-27T01:24:29;102753.48;;;21.72;43.29
75745;BME280;64359;51.366;-0.222;2023-02-27T01:25:33;102754.77;;;21.71;43.20
75745;BME280;64359;51.366;-0.222;2023-02-27T01:26:37;102757.83;;;21.72;43.19
75745;BME280;64359;51.366;-0.222;2023-02-27T01:27:42;102754.97;;;21.71;43.32
75745;BME280;64359;51.366;-0.222;2023-02-27T01:28:46;102754.05;;;21.72;43.39
75745;BME280;64359;51.366;-0.222;2023-02-27T01:29:51;102749.95;;;21.71;43.17
75745;BME280;64359;51.366;-0.222;2023-02-27T01:30:55;102749.92;;;21.71;43.13
75745;BME280;64359;51.366;-0.222;2023-02-27T01:31:59;102749.40;;;21.71;43.09
75745;BME280;64359;51.366;-0.222;2023-02-27T01:33:04;102744.92;;;21.71;42.91
75745;BME280;64359;51.366;-0.222;2023-02-27T01:34:08;102743.67;;;21.70;42.94
75745;BME280;64359;51.366;-0.222;2023-02-27T01:35:13;102747.30;;;21.70;43.10
75745;BME280;64359;51.366;-0.222;2023-02-27T01:36:17;102746.61;;;21.70;43.02
75745;BME280;64359;51.366;-0.222;2023-02-27T01:37:22;102750.45;;;21.70;42.93
75745;BME280;64359;51.366;-0.222;2023-02-27T01:38:26;102748.10;;;21.69;42.96
75745;BME280;64359;51.366;-0.222;2023-02-27T01:39:31;102741.96;;;21.70;42.96
75745;BME280;64359;51.366;-0.222;2023-02-27T01:40:37;102743.95;;;21.69;43.10
75745;BME280;64359;51.366;-0.222;2023-02-27T01:41:42;102744.39;;;21.69;43.00
75745;BME280;64359;51.366;-0.222;2023-02-27T01:42:46;102742.39;;;21.69;43.07
75745;BME280;64359;51.366;-0.222;2023-02-27T01:43:59;102742.42;;;21.69;43.16
75745;BME280;64359;51.366;-0.222;2023-02-27T01:46:29;102741.82;;;21.67;43.07
75745;BME280;64359;51.366;-0.222;2023-02-27T01:47:34;102736.63;;;21.67;42.83
75745;BME280;64359;51.366;-0.222;2023-02-27T01:48:39;102741.67;;;21.67;42.89
75745;BME280;64359;51.366;-0.222;2023-02-27T01:49:44;102740.97;;;21.67;42.79
75745;BME280;64359;51.366;-0.222;2023-02-27T01:50:52;102742.22;;;21.67;43.20
75745;BME280;64359;51.366;-0.222;2023-02-27T01:51:59;102737.58;;;21.66;43.04
75745;BME280;64359;51.366;-0.222;2023-02-27T01:53:08;102737.58;;;21.66;43.00
75745;BME280;64359;51.366;-0.222;2023-02-27T01:54:16;102732.71;;;21.66;42.93
75745;BME280;64359;51.366;-0.222;2023-02-27T01:55:22;102730.35;;;21.66;43.30
75745;BME280;64359;51.366;-0.222;2023-02-27T01:56:30;102734.75;;;21.66;43.10
75745;BME280;64359;51.366;-0.222;2023-02-27T01:57:35;102734.00;;;21.66;43.07
75745;BME280;64359;51.366;-0.222;2023-02-27T01:58:40;102732.20;;;21.66;43.31
75745;BME280;64359;51.366;-0.222;2023-02-27T01:59:45;102731.67;;;21.66;43.43
75745;BME280;64359;51.366;-0.222;2023-02-27T02:00:50;102731.98;;;21.66;43.22
75745;BME280;64359;51.366;-0.222;2023-02-27T02:01:55;102732.02;;;21.66;43.52
75745;BME280;64359;51.366;-0.222;2023-02-27T02:03:07;102733.10;;;21.66;42.99
75745;BME280;64359;51.366;-0.222;2023-02-27T02:04:16;102733.90;;;21.65;43.27
75745;BME280;64359;51.366;-0.222;2023-02-27T02:05:23;102736.98;;;21.65;43.18
75745;BME280;64359;51.366;-0.222;2023-02-27T02:06:28;102729.05;;;21.65;43.04
75745;BME280;64359;51.366;-0.222;2023-02-27T02:07:34;102727.93;;;21.65;42.91
75745;BME280;64359;51.366;-0.222;2023-02-27T02:08:43;102728.66;;;21.65;42.85
75745;BME280;64359;51.366;-0.222;2023-02-27T02:09:50;102726.35;;;21.65;42.98
75745;BME280;64359;51.366;-0.222;2023-02-27T02:10:55;102726.19;;;21.64;42.99
75745;BME280;64359;51.366;-0.222;2023-02-27T02:12:01;102723.47;;;21.64;43.10
75745;BME280;64359;51.366;-0.222;2023-02-27T02:13:07;102722.83;;;21.64;42.90
75745;BME280;64359;51.366;-0.222;2023-02-27T02:14:13;102722.56;;;21.65;43.54
75745;BME280;64359;51.366;-0.222;2023-02-27T02:15:17;102722.05;;;21.64;42.97
75745;BME280;64359;51.366;-0.222;2023-02-27T02:16:39;102720.96;;;21.64;42.96
75745;BME280;64359;51.366;-0.222;2023-02-27T02:17:58;102717.29;;;21.63;42.93
75745;BME280;64359;51.366;-0.222;2023-02-27T02:19:39;102721.96;;;21.63;42.74
75745;BME280;64359;51.366;-0.222;2023-02-27T02:21:13;102718.11;;;21.62;43.21
75745;BME280;64359;51.366;-0.222;2023-02-27T02:22:50;102719.02;;;21.60;43.22
75745;BME280;64359;51.366;-0.222;2023-02-27T02:24:24;102715.92;;;21.58;43.28
75745;BME280;64359;51.366;-0.222;2023-02-27T02:25:57;102716.02;;;21.57;43.12
75745;BME280;64359;51.366;-0.222;2023-02-27T02:27:20;102716.62;;;21.57;43.24
75745;BME280;64359;51.366;-0.222;2023-02-27T02:28:45;102718.48;;;21.56;42.94
75745;BME280;64359;51.366;-0.222;2023-02-27T02:31:51;102718.26;;;21.55;42.89
75745;BME280;64359;51.366;-0.222;2023-02-27T02:33:22;102717.82;;;21.54;42.81
75745;BME280;64359;51.366;-0.222;2023-02-27T02:36:47;102714.52;;;21.52;42.74
75745;BME280;64359;51.366;-0.222;2023-02-27T02:39:41;102711.49;;;21.50;42.96
75745;BME280;64359;51.366;-0.222;2023-02-27T02:40:52;102713.90;;;21.49;42.81
75745;BME280;64359;51.366;-0.222;2023-02-27T02:42:03;102717.52;;;21.49;42.97
75745;BME280;64359;51.366;-0.222;2023-02-27T02:43:12;102715.17;;;21.49;42.96
75745;BME280;64359;51.366;-0.222;2023-02-27T02:44:23;102716.61;;;21.49;43.09
75745;BME280;64359;51.366;-0.222;2023-02-27T02:45:48;102714.61;;;21.49;42.93
75745;BME280;64359;51.366;-0.222;2023-02-27T02:47:02;102712.13;;;21.49;43.04
75745;BME280;64359;51.366;-0.222;2023-02-27T02:48:14;102711.22;;;21.49;42.94
75745;BME280;64359;51.366;-0.222;2023-02-27T02:49:26;102707.11;;;21.49;42.90
75745;BME280;64359;51.366;-0.222;2023-02-27T02:50:37;102706.36;;;21.49;42.82
75745;BME280;64359;51.366;-0.222;2023-02-27T02:51:49;102705.25;;;21.49;42.85
75745;BME280;64359;51.366;-0.222;2023-02-27T02:53:03;102705.80;;;21.49;42.99
75745;BME280;64359;51.366;-0.222;2023-02-27T02:54:13;102704.30;;;21.49;42.91
75745;BME280;64359;51.366;-0.222;2023-02-27T02:55:25;102704.16;;;21.49;42.88
75745;BME280;64359;51.366;-0.222;2023-02-27T02:56:36;102706.10;;;21.50;42.84
75745;BME280;64359;51.366;-0.222;2023-02-27T02:57:44;102706.36;;;21.49;42.77
75745;BME280;64359;51.366;-0.222;2023-02-27T02:58:56;102707.62;;;21.49;42.91
75745;BME280;64359;51.366;-0.222;2023-02-27T03:00:07;102711.39;;;21.49;42.91
75745;BME280;64359;51.366;-0.222;2023-02-27T03:01:16;102712.13;;;21.49;42.88
75745;BME280;64359;51.366;-0.222;2023-02-27T03:02:24;102710.47;;;21.49;42.90
75745;BME280;64359;51.366;-0.222;2023-02-27T03:03:33;102711.78;;;21.49;42.71
75745;BME280;64359;51.366;-0.222;2023-02-27T03:04:41;102713.21;;;21.49;42.79
75745;BME280;64359;51.366;-0.222;2023-02-27T03:05:51;102710.33;;;21.49;42.84
75745;BME280;64359;51.366;-0.222;2023-02-27T03:07:01;102712.85;;;21.49;42.72
75745;BME280;64359;51.366;-0.222;2023-02-27T03:08:10;102714.27;;;21.49;42.72
75745;BME280;64359;51.366;-0.222;2023-02-27T03:09:17;102710.81;;;21.49;42.83
75745;BME280;64359;51.366;-0.222;2023-02-27T03:10:27;102714.41;;;21.49;43.23
75745;BME280;64359;51.366;-0.222;2023-02-27T03:11:37;102710.64;;;21.49;43.30
75745;BME280;64359;51.366;-0.222;2023-02-27T03:12:51;102714.23;;;21.50;43.21
75745;BME280;64359;51.366;-0.222;2023-02-27T03:14:00;102714.98;;;21.49;42.90
75745;BME280;64359;51.366;-0.222;2023-02-27T03:15:14;102713.18;;;21.49;42.93
75745;BME280;64359;51.366;-0.222;2023-02-27T03:16:25;102716.06;;;21.49;42.90
75745;BME280;64359;51.366;-0.222;2023-02-27T03:17:38;102713.73;;;21.49;43.00
75745;BME280;64359;51.366;-0.222;2023-02-27T03:18:48;102710.81;;;21.49;43.05
75745;BME280;64359;51.366;-0.222;2023-02-27T03:19:57;102712.95;;;21.50;43.32
75745;BME280;64359;51.366;-0.222;2023-02-27T03:21:07;102707.45;;;21.49;43.09
75745;BME280;64359;51.366;-0.222;2023-02-27T03:22:16;102712.64;;;21.49;43.22
75745;BME280;64359;51.366;-0.222;2023-02-27T03:23:24;102709.56;;;21.49;43.28
75745;BME280;64359;51.366;-0.222;2023-02-27T03:24:34;102711.19;;;21.49;43.03
75745;BME280;64359;51.366;-0.222;2023-02-27T03:25:44;102712.47;;;21.49;42.79
75745;BME280;64359;51.366;-0.222;2023-02-27T03:26:51;102716.48;;;21.49;42.78
75745;BME280;64359;51.366;-0.222;2023-02-27T03:28:01;102714.95;;;21.49;42.78
75745;BME280;64359;51.366;-0.222;2023-02-27T03:29:10;102711.67;;;21.50;43.02
75745;BME280;64359;51.366;-0.222;2023-02-27T03:30:18;102712.72;;;21.50;43.36
75745;BME280;64359;51.366;-0.222;2023-02-27T03:31:28;102711.67;;;21.50;43.36
75745;BME280;64359;51.366;-0.222;2023-02-27T03:32:37;102712.23;;;21.50;43.34
75745;BME280;64359;51.366;-0.222;2023-02-27T03:33:50;102714.05;;;21.50;42.93
75745;BME280;64359;51.366;-0.222;2023-02-27T03:34:56;102714.64;;;21.49;42.72
75745;BME280;64359;51.366;-0.222;2023-02-27T03:36:06;102712.30;;;21.49;42.80
75745;BME280;64359;51.366;-0.222;2023-02-27T03:37:21;102716.06;;;21.49;42.56
75745;BME280;64359;51.366;-0.222;2023-02-27T03:38:34;102716.98;;;21.49;42.62
75745;BME280;64359;51.366;-0.222;2023-02-27T03:39:45;102716.79;;;21.49;42.72
75745;BME280;64359;51.366;-0.222;2023-02-27T03:40:59;102712.84;;;21.49;42.83
75745;BME280;64359;51.366;-0.222;2023-02-27T03:42:15;102707.45;;;21.49;43.08
75745;BME280;64359;51.366;-0.222;2023-02-27T03:43:29;102708.91;;;21.49;43.12
75745;BME280;64359;51.366;-0.222;2023-02-27T03:44:42;102710.39;;;21.48;43.07
75745;BME280;64359;51.366;-0.222;2023-02-27T03:45:58;102709.50;;;21.48;42.63
75745;BME280;64359;51.366;-0.222;2023-02-27T03:47:04;102714.05;;;21.48;42.71
75745;BME280;64359;51.366;-0.222;2023-02-27T03:48:09;102714.08;;;21.47;42.56
75745;BME280;64359;51.366;-0.222;2023-02-27T03:49:14;102710.90;;;21.49;42.49
75745;BME280;64359;51.366;-0.222;2023-02-27T03:50:18;102712.93;;;21.48;42.58
75745;BME280;64359;51.366;-0.222;2023-02-27T03:51:24;102712.73;;;21.48;42.56
75745;BME280;64359;51.366;-0.222;2023-02-27T03:52:30;102710.21;;;21.48;42.59
75745;BME280;64359;51.366;-0.222;2023-02-27T03:53:39;102708.38;;;21.48;42.45
75745;BME280;64359;51.366;-0.222;2023-02-27T03:54:44;102710.79;;;21.48;42.39
75745;BME280;64359;51.366;-0.222;2023-02-27T03:55:51;102710.68;;;21.45;42.52
75745;BME280;64359;51.366;-0.222;2023-02-27T03:56:59;102711.42;;;21.45;42.55
75745;BME280;64359;51.366;-0.222;2023-02-27T03:58:05;102709.83;;;21.44;42.39
75745;BME280;64359;51.366;-0.222;2023-02-27T03:59:09;102711.09;;;21.44;42.57
75745;BME280;64359;51.366;-0.222;2023-02-27T04:00:17;102709.83;;;21.44;42.50
75745;BME280;64359;51.366;-0.222;2023-02-27T04:01:22;102709.14;;;21.44;42.52
75745;BME280;64359;51.366;-0.222;2023-02-27T04:02:27;102710.58;;;21.44;42.46
75745;BME280;64359;51.366;-0.222;2023-02-27T04:03:33;102709.31;;;21.44;42.40
75745;BME280;64359;51.366;-0.222;2023-02-27T04:04:38;102708.40;;;21.44;42.55
75745;BME280;64359;51.366;-0.222;2023-02-27T04:05:43;102713.11;;;21.44;42.56
75745;BME280;64359;51.366;-0.222;2023-02-27T04:06:52;102715.45;;;21.44;42.58
75745;BME280;64359;51.366;-0.222;2023-02-27T04:08:38;102713.88;;;21.43;42.93
75745;BME280;64359;51.366;-0.222;2023-02-27T04:10:08;102714.35;;;21.42;42.64
75745;BME280;64359;51.366;-0.222;2023-02-27T04:11:29;102719.14;;;21.41;42.71
75745;BME280;64359;51.366;-0.222;2023-02-27T04:12:55;102717.38;;;21.41;42.81
75745;BME280;64359;51.366;-0.222;2023-02-27T04:14:14;102724.10;;;21.40;42.70
75745;BME280;64359;51.366;-0.222;2023-02-27T04:15:27;102723.08;;;21.40;42.85
75745;BME280;64359;51.366;-0.222;2023-02-27T04:18:09;102727.48;;;21.39;42.93
75745;BME280;64359;51.366;-0.222;2023-02-27T04:19:30;102729.85;;;21.39;43.02
75745;BME280;64359;51.366;-0.222;2023-02-27T04:20:43;102734.05;;;21.39;42.59
75745;BME280;64359;51.366;-0.222;2023-02-27T04:21:55;102737.30;;;21.39;42.61
75745;BME280;64359;51.366;-0.222;2023-02-27T04:23:09;102740.02;;;21.39;42.63
75745;BME280;64359;51.366;-0.222;2023-02-27T04:24:24;102738.05;;;21.38;42.58
75745;BME280;64359;51.366;-0.222;2023-02-27T04:25:40;102739.33;;;21.38;42.96
75745;BME280;64359;51.366;-0.222;2023-02-27T04:26:49;102738.01;;;21.39;42.53
75745;BME280;64359;51.366;-0.222;2023-02-27T04:27:59;102736.05;;;21.38;42.75
75745;BME280;64359;51.366;-0.222;2023-02-27T04:29:13;102738.01;;;21.39;42.62
75745;BME280;64359;51.366;-0.222;2023-02-27T04:30:23;102736.04;;;21.39;42.62
75745;BME280;64359;51.366;-0.222;2023-02-27T04:31:31;102737.64;;;21.39;42.74
75745;BME280;64359;51.366;-0.222;2023-02-27T04:32:43;102737.70;;;21.38;42.63
75745;BME280;64359;51.366;-0.222;2023-02-27T04:33:55;102738.04;;;21.38;42.55
75745;BME280;64359;51.366;-0.222;2023-02-27T04:35:04;102740.23;;;21.38;42.54
75745;BME280;64359;51.366;-0.222;2023-02-27T04:36:15;102740.58;;;21.38;42.66
75745;BME280;64359;51.366;-0.222;2023-02-27T04:37:23;102734.81;;;21.38;42.44
75745;BME280;64359;51.366;-0.222;2023-02-27T04:38:34;102733.50;;;21.39;42.68
75745;BME280;64359;51.366;-0.222;2023-02-27T04:39:43;102735.50;;;21.39;42.40
75745;BME280;64359;51.366;-0.222;2023-02-27T04:40:56;102738.10;;;21.38;42.54
75745;BME280;64359;51.366;-0.222;2023-02-27T04:42:04;102736.98;;;21.38;42.61
75745;BME280;64359;51.366;-0.222;2023-02-27T04:43:11;102738.75;;;21.38;42.45
75745;BME280;64359;51.366;-0.222;2023-02-27T04:44:19;102738.73;;;21.39;42.42
75745;BME280;64359;51.366;-0.222;2023-02-27T04:45:26;102738.73;;;21.39;42.38
75745;BME280;64359;51.366;-0.222;2023-02-27T04:46:31;102738.07;;;21.38;42.58
75745;BME280;64359;51.366;-0.222;2023-02-27T04:47:41;102738.41;;;21.38;42.30
75745;BME280;64359;51.366;-0.222;2023-02-27T04:48:50;102734.99;;;21.38;42.47
75745;BME280;64359;51.366;-0.222;2023-02-27T04:49:57;102735.87;;;21.38;42.42
75745;BME280;64359;51.366;-0.222;2023-02-27T04:51:08;102731.91;;;21.38;42.27
75745;BME280;64359;51.366;-0.222;2023-02-27T04:52:19;102734.84;;;21.38;42.17
75745;BME280;64359;51.366;-0.222;2023-02-27T04:53:29;102735.98;;;21.37;42.17
75745;BME280;64359;51.366;-0.222;2023-02-27T04:54:38;102730.56;;;21.37;42.23
75745;BME280;64359;51.366;-0.222;2023-02-27T04:55:47;102726.06;;;21.37;42.18
75745;BME280;64359;51.366;-0.222;2023-02-27T04:56:55;102727.16;;;21.37;42.17
75745;BME280;64359;51.366;-0.222;2023-02-27T04:58:04;102726.09;;;21.37;42.25
75745;BME280;64359;51.366;-0.222;2023-02-27T04:59:14;102725.77;;;21.36;42.22
75745;BME280;64359;51.366;-0.222;2023-02-27T05:00:22;102726.37;;;21.36;42.29
75745;BME280;64359;51.366;-0.222;2023-02-27T05:01:33;102727.05;;;21.36;42.29
75745;BME280;64359;51.366;-0.222;2023-02-27T05:02:41;102731.45;;;21.35;42.24
75745;BME280;64359;51.366;-0.222;2023-02-27T05:03:49;102728.55;;;21.36;42.19
75745;BME280;64359;51.366;-0.222;2023-02-27T05:04:59;102730.60;;;21.35;42.27
75745;BME280;64359;51.366;-0.222;2023-02-27T05:06:05;102731.17;;;21.35;42.26
75745;BME280;64359;51.366;-0.222;2023-02-27T05:07:14;102729.34;;;21.35;42.38
75745;BME280;64359;51.366;-0.222;2023-02-27T05:08:25;102726.48;;;21.34;42.32
75745;BME280;64359;51.366;-0.222;2023-02-27T05:09:34;102727.44;;;21.34;42.26
75745;BME280;64359;51.366;-0.222;2023-02-27T05:10:45;102726.21;;;21.34;42.32
75745;BME280;64359;51.366;-0.222;2023-02-27T05:11:55;102732.17;;;21.34;42.18
75745;BME280;64359;51.366;-0.222;2023-02-27T05:13:08;102731.48;;;21.33;42.31
75745;BME280;64359;51.366;-0.222;2023-02-27T05:14:17;102730.98;;;21.33;42.21
75745;BME280;64359;51.366;-0.222;2023-02-27T05:15:25;102731.87;;;21.33;42.39
75745;BME280;64359;51.366;-0.222;2023-02-27T05:16:34;102732.42;;;21.33;42.35
75745;BME280;64359;51.366;-0.222;2023-02-27T05:17:43;102733.14;;;21.33;42.34
75745;BME280;64359;51.366;-0.222;2023-02-27T05:18:49;102730.95;;;21.33;42.34
75745;BME280;64359;51.366;-0.222;2023-02-27T05:19:54;102726.80;;;21.33;42.31
75745;BME280;64359;51.366;-0.222;2023-02-27T05:21:12;102729.01;;;21.33;42.36
75745;BME280;64359;51.366;-0.222;2023-02-27T05:22:27;102729.35;;;21.33;42.70
75745;BME280;64359;51.366;-0.222;2023-02-27T05:23:37;102727.77;;;21.32;42.72
75745;BME280;64359;51.366;-0.222;2023-02-27T05:24:50;102725.23;;;21.33;42.65
75745;BME280;64359;51.366;-0.222;2023-02-27T05:26:00;102723.49;;;21.32;42.38
75745;BME280;64359;51.366;-0.222;2023-02-27T05:27:17;102722.04;;;21.32;42.30
75745;BME280;64359;51.366;-0.222;2023-02-27T05:28:25;102721.39;;;21.31;42.18
75745;BME280;64359;51.366;-0.222;2023-02-27T05:29:38;102720.85;;;21.31;42.32
75745;BME280;64359;51.366;-0.222;2023-02-27T05:30:50;102722.14;;;21.31;42.31
75745;BME280;64359;51.366;-0.222;2023-02-27T05:32:01;102718.56;;;21.31;42.11
75745;BME280;64359;51.366;-0.222;2023-02-27T05:33:09;102716.73;;;21.31;42.35
75745;BME280;64359;51.366;-0.222;2023-02-27T05:34:20;102714.39;;;21.31;42.35
75745;BME280;64359;51.366;-0.222;2023-02-27T05:35:28;102721.27;;;21.31;42.16
75745;BME280;64359;51.366;-0.222;2023-02-27T05:36:37;102722.36;;;21.31;42.28
75745;BME280;64359;51.366;-0.222;2023-02-27T05:37:45;102721.30;;;21.30;42.49
75745;BME280;64359;51.366;-0.222;2023-02-27T05:38:54;102721.67;;;21.30;42.04
75745;BME280;64359;51.366;-0.222;2023-02-27T05:40:03;102722.91;;;21.30;41.99
75745;BME280;64359;51.366;-0.222;2023-02-27T05:41:12;102722.42;;;21.30;42.01
75745;BME280;64359;51.366;-0.222;2023-02-27T05:42:20;102724.02;;;21.30;41.97
75745;BME280;64359;51.366;-0.222;2023-02-27T05:43:29;102720.73;;;21.31;41.83
75745;BME280;64359;51.366;-0.222;2023-02-27T05:44:37;102722.50;;;21.31;41.88
75745;BME280;64359;51.366;-0.222;2023-02-27T05:45:45;102725.93;;;21.31;41.91
75745;BME280;64359;51.366;-0.222;2023-02-27T05:46:54;102726.80;;;21.31;41.96
75745;BME280;64359;51.366;-0.222;2023-02-27T05:48:03;102726.95;;;21.32;41.69
75745;BME280;64359;51.366;-0.222;2023-02-27T05:49:12;102728.55;;;21.32;41.77
75745;BME280;64359;51.366;-0.222;2023-02-27T05:50:22;102731.80;;;21.32;41.65
75745;BME280;64359;51.366;-0.222;2023-02-27T05:51:30;102728.13;;;21.32;41.75
75745;BME280;64359;51.366;-0.222;2023-02-27T05:52:37;102731.38;;;21.33;41.77
75745;BME280;64359;51.366;-0.222;2023-02-27T05:53:47;102733.11;;;21.33;41.80
75745;BME280;64359;51.366;-0.222;2023-02-27T05:54:56;102735.79;;;21.33;41.75
75745;BME280;64359;51.366;-0.222;2023-02-27T05:56:03;102733.56;;;21.34;41.53
75745;BME280;64359;51.366;-0.222;2023-02-27T05:57:11;102734.89;;;21.34;41.38
75745;BME280;64359;51.366;-0.222;2023-02-27T05:58:20;102735.23;;;21.34;41.47
75745;BME280;64359;51.366;-0.222;2023-02-27T05:59:30;102733.26;;;21.34;41.61
75745;BME280;64359;51.366;-0.222;2023-02-27T06:00:37;102734.31;;;21.34;41.60
75745;BME280;64359;51.366;-0.222;2023-02-27T06:01:43;102731.60;;;21.34;41.53
75745;BME280;64359;51.366;-0.222;2023-02-27T06:02:47;102733.34;;;21.35;41.63
75745;BME280;64359;51.366;-0.222;2023-02-27T06:03:53;102731.23;;;21.34;41.63